MET'MAP v2.0
soon released !

Expected late october,
this new version will be
more efficient, smarter,
and hosted on a brand new
server x3 powerfull...
...and still free !


Not compatible ?
Try the mobile version !

LOG IN : | Subscribe | Disclaimer | Who is Orbifly ? |
ICAO code :

TAF - EKYT Aalborg - 25 Feb 2020 01:04 UTC - Data Source NOAA   


- Airport Elevation : 10 ft
- IATA code : AAL
- No reported NOTAMs.


EKYT - Aalborg

Latest METAR recorded : 2015/08/11 07:50 EKYT 110750Z 18005KT 9999 SCT027 BKN040 19/12 Q1017
TAF TAF EKYT
Valid from the 25 at 00:00 until the 26 at 00:00 UTC


242320Z 2500/2524 12018KT 5000 -RA SCT006 BKN012
TEMPO 2500/2504 14020G30KT 1500 RASN BR BKN003
BECMG 2504/2506 19015KT 8000 -RA SCT012 BKN020
TEMPO 2506/2518 5000 RADZ BKN012 SCT020CB
BECMG 2513/2516 VRB05KT
TEMPO 2518/2524 3000 RADZ BKN006 SCT020CB

Source NOAA


MET'MAP, your aeronautical weather chart ! - Copyright ORBIFLY December 2007

Programming & Development : Alexandra Zaïnal
Co-Developer : Marc-Olivier Méhu
Technical & hardware support : Manuel Goepfert
Concept & Financing : Baudouin d'Aumeries